Main page
METAR-TAF:

METAR-TAF

Airports :

Nawabshah Airport

Nawabshah, Pakistan

latitude: 26-15N, longitude: 068-22E, elevation: 37 m

Current weather observation

The report was made 17 minutes ago, at 03:00 UTC
Wind 4 kt from the Southeast
Temperature 24°C
Humidity 61%
Pressure 1012 hPa
haze

METAR: OPNH 190300Z 13504KT 5000M HZ NSC 24/16 Q1012 NOSIG

Time: 08:17 (03:17 UTC)

Forecast

The report was made 2 hours and 47 minutes ago, at 00:30 UTC
Forecast valid from 19 at 03 UTC to 19 at 12 UTC
Wind 5 kt from the South/Southwest with gusts up to 15 kt
Visibility: 6000 m

TAF: OPNH 190030Z 1903/1912 21005G15KT 6000 NSC

Weather observations and forecasts of more than 4000 airports (METAR and TAF reports).

The available stations are represented by yellow and red dots on the map.

Hover mouse over dot to see the name of the station.

Then click to see weather observations and forecasts.

To change the map : click on the green buttons with a black cross to zoom in, on the green button with a dash to zoom out, or on the green arrows for adjacent maps.


METAR-TAF: